Time;durP1;ratioP1;P1;durP2;ratioP2;P2;SDS_P1;SDS_P2;PMS_P1;PMS_P2;Temp;Humidity;BMP_temperature;BMP_pressure;BME280_temperature;BME280_humidity;BME280_pressure;Samples;Min_cycle;Max_cycle;Signal;HPM_P1;HPM_P2
2021/10/02 00:01:48;;;;;;;6.53;5.83;;;;;;;13.39;100.00;98171.44;5063441;28;20229;-61
2021/10/02 00:37:30;;;;;;;8.93;6.73;;;;;;;12.73;100.00;98182.84;5057993;28;20630;-62
2021/10/02 00:45:26;;;;;;;9.43;6.93;;;;;;;12.75;100.00;98182.69;5049813;28;20294;-62
2021/10/02 00:47:56;;;;;;;9.87;7.40;;;;;;;12.76;100.00;98190.53;5068849;28;20214;-62
2021/10/02 00:50:22;;;;;;;10.20;7.53;;;;;;;12.75;100.00;98193.31;5067473;28;20217;-62
2021/10/02 00:52:49;;;;;;;9.60;7.77;;;;;;;12.74;100.00;98191.63;5066291;28;20239;-62
2021/10/02 00:55:16;;;;;;;9.23;7.33;;;;;;;12.73;100.00;98189.94;5067141;28;20217;-62
2021/10/02 00:57:42;;;;;;;11.57;7.60;;;;;;;12.71;100.00;98186.56;5064047;28;20226;-62
2021/10/02 01:00:10;;;;;;;9.07;7.37;;;;;;;12.71;100.00;98191.88;5064611;28;20219;-62
2021/10/02 01:02:48;;;;;;;9.27;7.50;;;;;;;12.72;100.00;98190.91;5063681;28;20224;-62
2021/10/02 01:05:38;;;;;;;9.07;7.10;;;;;;;12.76;100.00;98184.38;5068545;28;20261;-62
2021/10/02 01:08:14;;;;;;;9.43;7.27;;;;;;;12.80;100.00;98188.50;5064790;28;20215;-62
2021/10/02 01:10:50;;;;;;;10.07;7.80;;;;;;;12.78;100.00;98187.78;5066223;28;20690;-62
2021/10/02 01:13:21;;;;;;;10.67;7.97;;;;;;;12.78;100.00;98191.25;5066223;28;20677;-62
2021/10/02 01:15:52;;;;;;;11.13;8.03;;;;;;;12.83;100.00;98188.28;5064667;28;20747;-62
2021/10/02 01:18:25;;;;;;;11.07;8.13;;;;;;;12.83;100.00;98190.94;5065441;28;20237;-62
2021/10/02 01:21:16;;;;;;;11.07;8.83;;;;;;;12.83;100.00;98185.63;5068291;28;20214;-62
2021/10/02 01:24:00;;;;;;;9.60;7.63;;;;;;;12.82;100.00;98195.38;5065037;28;20765;-63
2021/10/02 01:26:49;;;;;;;10.70;7.90;;;;;;;12.79;100.00;98189.47;5066756;28;20222;-62
2021/10/02 01:29:18;;;;;;;11.13;7.73;;;;;;;12.74;100.00;98186.31;5067879;28;20232;-62
2021/10/02 01:31:55;;;;;;;10.40;7.77;;;;;;;12.70;100.00;98184.84;5064248;28;20560;-62
2021/10/02 01:34:29;;;;;;;8.67;7.33;;;;;;;12.69;100.00;98175.22;5067380;28;20317;-62
2021/10/02 01:37:06;;;;;;;10.33;7.93;;;;;;;12.69;100.00;98177.84;5067499;28;20214;-62
2021/10/02 01:47:55;;;;;;;8.20;6.50;;;;;;;12.57;100.00;98169.06;5062796;28;20635;-62
2021/10/02 01:50:23;;;;;;;11.07;7.90;;;;;;;12.45;100.00;98166.47;5067347;28;20286;-62
2021/10/02 01:52:51;;;;;;;10.63;7.73;;;;;;;12.34;100.00;98174.41;5067193;28;20609;-62
2021/10/02 01:55:19;;;;;;;10.87;7.83;;;;;;;12.26;100.00;98177.63;5060373;28;20213;-62
2021/10/02 01:57:48;;;;;;;9.90;7.63;;;;;;;12.25;100.00;98169.78;5065235;28;20245;-62
2021/10/02 02:00:17;;;;;;;8.47;7.43;;;;;;;12.21;100.00;98170.97;5067336;28;20221;-62
2021/10/02 02:02:49;;;;;;;8.17;6.77;;;;;;;12.20;100.00;98164.84;5067118;28;20214;-62
2021/10/02 02:05:18;;;;;;;8.57;6.83;;;;;;;12.22;100.00;98167.41;5061605;28;20245;-62
2021/10/02 02:07:49;;;;;;;9.60;6.67;;;;;;;12.27;100.00;98171.38;5066868;28;20217;-62
2021/10/02 02:10:16;;;;;;;8.27;6.60;;;;;;;12.32;100.00;98168.38;5067071;28;20220;-62
2021/10/02 02:12:44;;;;;;;8.30;6.67;;;;;;;12.33;100.00;98156.81;5065366;28;20668;-62
2021/10/02 02:15:12;;;;;;;8.20;6.63;;;;;;;12.34;100.00;98150.56;5063595;28;20217;-62
2021/10/02 02:17:44;;;;;;;6.90;6.17;;;;;;;12.33;100.00;98144.41;5046795;28;20212;-62
2021/10/02 02:20:19;;;;;;;8.43;6.90;;;;;;;12.34;100.00;98145.28;5067221;28;20344;-62
2021/10/02 02:22:47;;;;;;;7.57;6.37;;;;;;;12.33;100.00;98138.25;5063412;28;20225;-62
2021/10/02 02:25:13;;;;;;;8.60;7.00;;;;;;;12.31;100.00;98140.19;5064232;28;20253;-62
2021/10/02 02:27:40;;;;;;;12.93;6.83;;;;;;;12.28;100.00;98143.09;5067056;28;20215;-62
2021/10/02 02:30:07;;;;;;;8.17;6.57;;;;;;;12.31;100.00;98146.34;5065356;28;20315;-62
2021/10/02 02:32:34;;;;;;;8.07;6.83;;;;;;;12.30;100.00;98149.09;5063497;28;20211;-62
2021/10/02 02:35:02;;;;;;;7.67;6.77;;;;;;;12.32;100.00;98140.06;5061245;28;20679;-62
2021/10/02 02:37:29;;;;;;;8.67;6.90;;;;;;;12.33;100.00;98132.94;5066983;28;20214;-62
2021/10/02 02:39:55;;;;;;;8.73;6.87;;;;;;;12.36;100.00;98130.09;5066751;28;20221;-62
2021/10/02 02:42:23;;;;;;;7.93;6.80;;;;;;;12.35;100.00;98136.34;5063944;28;20230;-62
2021/10/02 02:44:49;;;;;;;8.37;7.00;;;;;;;12.36;100.00;98138.03;5063601;28;20236;-62
2021/10/02 02:47:22;;;;;;;9.30;7.17;;;;;;;12.39;100.00;98148.38;5066566;28;20216;-62
2021/10/02 02:49:55;;;;;;;9.77;7.70;;;;;;;12.38;100.00;98146.69;5066810;28;20217;-62
2021/10/02 02:52:29;;;;;;;8.93;7.43;;;;;;;12.39;100.00;98156.34;5060083;28;20239;-62
2021/10/02 02:55:03;;;;;;;9.73;7.40;;;;;;;12.41;100.00;98157.09;5065706;28;20211;-62
2021/10/02 02:57:39;;;;;;;8.57;6.60;;;;;;;12.41;100.00;98151.78;5059139;28;20212;-62
2021/10/02 03:00:08;;;;;;;8.10;6.47;;;;;;;12.38;100.00;98130.81;5063215;28;20681;-62
2021/10/02 03:02:37;;;;;;;11.77;6.40;;;;;;;12.36;100.00;98138.03;5061668;28;20302;-62
2021/10/02 03:05:06;;;;;;;7.73;6.90;;;;;;;12.39;100.00;98132.47;5066313;28;20250;-62
2021/10/02 03:07:40;;;;;;;8.40;6.93;;;;;;;12.29;100.00;98126.22;5066429;28;20218;-62
2021/10/02 03:10:11;;;;;;;7.67;6.40;;;;;;;12.24;100.00;98131.84;5060415;28;20216;-62
2021/10/02 03:12:41;;;;;;;9.37;6.50;;;;;;;12.22;100.00;98136.41;5066358;28;20223;-62
2021/10/02 03:15:11;;;;;;;7.97;6.67;;;;;;;12.24;100.00;98128.38;5070453;28;20638;-62
2021/10/02 03:17:38;;;;;;;8.00;6.90;;;;;;;12.23;100.00;98139.94;5068773;28;20223;-62
2021/10/02 03:20:07;;;;;;;9.70;6.70;;;;;;;12.23;100.00;98137.28;5066579;28;20215;-62
2021/10/02 03:22:36;;;;;;;10.00;6.20;;;;;;;12.22;100.00;98139.06;5048702;28;20218;-61
2021/10/02 03:25:03;;;;;;;8.77;6.87;;;;;;;12.20;100.00;98138.34;5070399;28;20261;-62
2021/10/02 03:27:31;;;;;;;9.57;7.20;;;;;;;12.12;100.00;98137.25;5068025;28;20237;-62
2021/10/02 03:29:58;;;;;;;8.57;6.97;;;;;;;12.12;100.00;98137.25;5066158;28;20209;-62
2021/10/02 03:32:26;;;;;;;8.27;6.27;;;;;;;12.11;100.00;98139.03;5070203;28;20211;-62
2021/10/02 03:34:53;;;;;;;7.97;6.20;;;;;;;12.12;100.00;98134.59;5069956;28;20708;-62
2021/10/02 03:37:20;;;;;;;8.67;6.83;;;;;;;12.15;100.00;98139.63;5067904;28;20293;-62
2021/10/02 03:39:48;;;;;;;7.97;6.70;;;;;;;12.17;100.00;98143.03;5066540;28;20212;-62
2021/10/02 03:42:18;;;;;;;8.60;6.67;;;;;;;12.16;100.00;98146.66;5050278;28;20227;-62
2021/10/02 03:44:46;;;;;;;7.87;6.57;;;;;;;12.13;100.00;98157.47;5069703;28;20374;-62
2021/10/02 03:47:15;;;;;;;8.63;6.20;;;;;;;12.09;100.00;98148.91;5066803;28;20243;-62
2021/10/02 03:49:42;;;;;;;9.80;7.07;;;;;;;12.08;100.00;98143.72;5065271;28;20220;-62
2021/10/02 03:52:10;;;;;;;9.40;6.63;;;;;;;12.13;100.00;98136.28;5069807;28;20241;-61
2021/10/02 03:54:37;;;;;;;7.87;6.23;;;;;;;12.12;100.00;98134.59;5069628;28;20215;-62
2021/10/02 03:57:05;;;;;;;7.40;5.97;;;;;;;12.08;100.00;98130.47;5067128;28;20233;-61
2021/10/02 03:59:32;;;;;;;8.73;6.30;;;;;;;12.06;100.00;98140.34;5066110;28;20218;-62
2021/10/02 04:01:59;;;;;;;7.07;5.97;;;;;;;12.03;100.00;98140.56;5069784;28;20216;-62
2021/10/02 04:04:25;;;;;;;10.07;6.77;;;;;;;12.03;100.00;98151.16;5069272;28;20215;-62
2021/10/02 04:06:52;;;;;;;8.90;6.70;;;;;;;12.03;100.00;98145.84;5067212;28;20235;-62
2021/10/02 04:09:20;;;;;;;7.87;6.80;;;;;;;12.01;100.00;98137.19;5065659;28;20711;-62
2021/10/02 04:11:46;;;;;;;8.63;7.27;;;;;;;12.01;100.00;98147.78;5069311;28;20292;-62
2021/10/02 04:14:14;;;;;;;8.23;6.43;;;;;;;12.01;100.00;98143.34;5067428;28;20685;-62
2021/10/02 04:16:40;;;;;;;7.70;6.00;;;;;;;11.99;100.00;98139.13;5067080;28;20305;-62
2021/10/02 04:19:07;;;;;;;7.97;6.57;;;;;;;12.01;100.00;98139.84;5065304;28;20693;-62
2021/10/02 04:21:33;;;;;;;8.50;6.50;;;;;;;12.04;100.00;98136.97;5048837;28;20220;-62
2021/10/02 04:24:00;;;;;;;7.63;6.40;;;;;;;11.99;100.00;98133.81;5069062;28;20217;-62
2021/10/02 04:26:27;;;;;;;7.90;6.10;;;;;;;11.97;100.00;98138.38;5067597;28;20309;-62
2021/10/02 04:28:54;;;;;;;6.40;5.70;;;;;;;11.95;100.00;98133.22;5065407;28;20221;-62
2021/10/02 04:31:22;;;;;;;7.90;6.20;;;;;;;11.99;100.00;98139.13;5068706;28;20221;-62
2021/10/02 04:33:49;;;;;;;6.70;5.70;;;;;;;11.96;100.00;98128.75;5068880;28;20212;-62
2021/10/02 04:36:15;;;;;;;8.37;5.80;;;;;;;11.96;100.00;98134.03;5067283;28;20699;-62
2021/10/02 04:38:42;;;;;;;6.67;5.80;;;;;;;11.94;100.00;98135.97;5065267;28;20219;-62
2021/10/02 04:41:09;;;;;;;7.80;6.03;;;;;;;11.92;100.00;98129.94;5066519;28;20209;-62
2021/10/02 04:43:40;;;;;;;7.97;5.77;;;;;;;11.93;100.00;98124.50;5068943;28;20253;-62
2021/10/02 04:46:07;;;;;;;7.50;5.80;;;;;;;11.94;100.00;98133.31;5067259;28;20285;-62
2021/10/02 04:48:35;;;;;;;6.67;5.50;;;;;;;11.91;100.00;98131.75;5064687;28;20220;-62
2021/10/02 04:51:01;;;;;;;7.80;6.10;;;;;;;11.87;100.00;98124.97;5068164;28;20215;-62
2021/10/02 04:53:28;;;;;;;7.10;6.10;;;;;;;11.85;100.00;98136.63;5068792;28;20322;-62
2021/10/02 04:55:58;;;;;;;7.37;5.63;;;;;;;11.78;100.00;98135.41;5061741;28;20221;-61
2021/10/02 04:58:25;;;;;;;7.37;6.00;;;;;;;11.74;100.00;98142.72;5064732;28;20220;-62
2021/10/02 05:00:51;;;;;;;7.97;6.30;;;;;;;11.69;100.00;98138.75;5068454;28;20213;-62
2021/10/02 05:03:18;;;;;;;7.13;5.57;;;;;;;11.64;100.00;98132.94;5068325;28;20223;-62
2021/10/02 05:05:46;;;;;;;8.23;5.70;;;;;;;11.64;100.00;98127.63;5065192;28;20233;-62
2021/10/02 05:08:12;;;;;;;7.43;6.00;;;;;;;11.59;100.00;98135.06;5064359;28;20671;-62
2021/10/02 05:10:39;;;;;;;6.73;5.50;;;;;;;11.51;100.00;98137.41;5067778;28;20590;-62
2021/10/02 05:13:07;;;;;;;6.53;5.57;;;;;;;11.48;100.00;98134.97;5068255;28;20215;-62
2021/10/02 05:15:33;;;;;;;6.40;5.60;;;;;;;11.46;100.00;98128.94;5067092;28;20223;-62
2021/10/02 05:18:00;;;;;;;7.70;6.20;;;;;;;11.49;100.00;98128.75;5064515;28;20235;-62
2021/10/02 05:20:27;;;;;;;8.53;6.73;;;;;;;11.49;100.00;98129.56;5067277;28;20225;-62
2021/10/02 05:22:55;;;;;;;6.73;5.90;;;;;;;11.58;100.00;98128.06;5067795;28;20215;-62
2021/10/02 05:25:21;;;;;;;6.70;5.73;;;;;;;11.61;100.00;98133.16;5066830;28;20681;-62
2021/10/02 05:27:48;;;;;;;7.83;6.53;;;;;;;11.62;100.00;98124.28;5064192;28;20212;-62
2021/10/02 05:30:14;;;;;;;9.20;6.47;;;;;;;11.61;100.00;98120.75;5066835;28;20216;-62
2021/10/02 05:32:41;;;;;;;7.10;5.90;;;;;;;11.55;100.00;98117.72;5066092;28;20673;-62
2021/10/02 05:35:08;;;;;;;7.53;5.97;;;;;;;11.53;100.00;98116.94;5067271;28;20208;-62
2021/10/02 05:37:35;;;;;;;9.63;6.33;;;;;;;11.55;100.00;98112.41;5064045;28;20232;-62
2021/10/02 05:40:04;;;;;;;8.60;6.33;;;;;;;11.58;100.00;98107.78;5065710;28;20262;-62
2021/10/02 05:42:30;;;;;;;8.53;6.30;;;;;;;11.62;100.00;98111.03;5067512;28;20696;-62
2021/10/02 05:44:57;;;;;;;9.73;6.90;;;;;;;11.69;100.00;98101.69;5067465;28;20219;-62
2021/10/02 05:47:23;;;;;;;8.63;6.30;;;;;;;11.78;100.00;98099.19;5063922;28;20239;-62
2021/10/02 05:49:50;;;;;;;7.77;5.93;;;;;;;11.91;100.00;98101.75;5065672;28;20215;-63
2021/10/02 05:52:17;;;;;;;8.17;6.53;;;;;;;11.98;100.00;98098.53;5067736;28;20239;-64
2021/10/02 05:54:43;;;;;;;9.07;6.33;;;;;;;12.07;100.00;98091.69;5067318;28;20238;-63
2021/10/02 05:57:11;;;;;;;8.00;6.63;;;;;;;12.15;100.00;98092.81;5063603;28;20215;-62
2021/10/02 05:59:38;;;;;;;9.07;6.90;;;;;;;12.23;100.00;98093.06;5064105;28;20223;-62
2021/10/02 06:02:04;;;;;;;7.97;6.63;;;;;;;12.30;100.00;98098.75;5067410;28;20211;-62
2021/10/02 06:04:31;;;;;;;8.57;6.80;;;;;;;12.42;100.00;98097.81;5067422;28;20293;-62
2021/10/02 06:06:57;;;;;;;6.80;5.77;;;;;;;12.53;100.00;98105.78;5063720;28;20250;-62
2021/10/02 06:09:24;;;;;;;6.97;6.10;;;;;;;12.65;100.00;98110.97;5061876;28;20211;-62
2021/10/02 06:11:50;;;;;;;8.03;6.10;;;;;;;12.69;100.00;98108.91;5067253;28;20220;-62
2021/10/02 06:14:18;;;;;;;7.43;6.03;;;;;;;12.67;100.00;98102.91;5059013;28;20219;-62
2021/10/02 06:16:45;;;;;;;8.03;6.07;;;;;;;12.62;100.00;98097.97;5063115;28;20225;-62
2021/10/02 06:19:11;;;;;;;7.63;6.70;;;;;;;12.60;100.00;98099.88;5064042;28;20218;-62
2021/10/02 06:21:38;;;;;;;7.43;5.83;;;;;;;12.57;100.00;98104.56;5066922;28;20217;-62
2021/10/02 06:24:05;;;;;;;8.03;6.63;;;;;;;12.53;100.00;98119.88;5065418;28;20212;-62
2021/10/02 06:26:35;;;;;;;8.47;7.17;;;;;;;12.52;100.00;98104.06;5064525;28;20246;-62
2021/10/02 06:29:01;;;;;;;7.80;6.33;;;;;;;12.48;100.00;98099.97;5063951;28;20220;-62
2021/10/02 06:31:29;;;;;;;8.67;6.10;;;;;;;12.47;100.00;98107.09;5067013;28;20214;-62
2021/10/02 06:33:56;;;;;;;7.80;6.47;;;;;;;12.44;100.00;98107.34;5066744;28;20226;-62
2021/10/02 06:36:22;;;;;;;9.30;7.27;;;;;;;12.43;100.00;98107.44;5064268;28;20219;-62
2021/10/02 06:38:49;;;;;;;8.77;7.20;;;;;;;12.45;100.00;98116.13;5063640;28;20213;-62
2021/10/02 06:41:15;;;;;;;7.60;6.80;;;;;;;12.45;100.00;98116.13;5066646;28;20221;-62
2021/10/02 06:43:42;;;;;;;9.33;6.70;;;;;;;12.44;100.00;98109.13;5066931;28;20215;-62
2021/10/02 06:46:08;;;;;;;7.67;6.67;;;;;;;12.49;100.00;98106.97;5064471;28;20613;-62
2021/10/02 06:48:36;;;;;;;8.73;7.13;;;;;;;12.54;100.00;98104.81;5065414;28;20280;-62
2021/10/02 06:51:03;;;;;;;8.33;7.00;;;;;;;12.59;100.00;98102.66;5049750;28;20213;-62
2021/10/02 06:53:29;;;;;;;9.73;6.83;;;;;;;12.61;100.00;98103.38;5070505;28;20247;-62
2021/10/02 06:55:56;;;;;;;9.20;6.97;;;;;;;12.65;100.00;98097.69;5063730;28;20226;-62
2021/10/02 06:58:22;;;;;;;8.30;6.90;;;;;;;12.63;100.00;98101.44;5067116;28;20214;-62
2021/10/02 07:00:49;;;;;;;8.73;6.93;;;;;;;12.59;100.00;98105.31;5070479;28;20594;-62
2021/10/02 07:03:15;;;;;;;8.00;6.67;;;;;;;12.60;100.00;98101.69;5070823;28;20225;-62
2021/10/02 07:05:43;;;;;;;8.53;6.53;;;;;;;12.63;100.00;98104.94;5069476;28;20210;-62
2021/10/02 07:08:09;;;;;;;9.30;6.93;;;;;;;12.67;100.00;98110.84;5066793;28;20224;-62
2021/10/02 07:10:36;;;;;;;8.27;6.90;;;;;;;12.76;100.00;98099.50;5066337;28;20219;-62
2021/10/02 07:13:03;;;;;;;7.53;6.47;;;;;;;12.88;100.00;98103.84;5069236;28;20215;-61
2021/10/02 07:15:30;;;;;;;8.60;6.73;;;;;;;13.01;100.00;98109.94;5067294;28;20208;-62
2021/10/02 07:17:57;;;;;;;7.90;6.60;;;;;;;13.16;100.00;98104.25;5064736;28;20223;-62
2021/10/02 07:20:25;;;;;;;8.30;6.77;;;;;;;13.28;100.00;98110.38;5059265;28;20576;-62
2021/10/02 07:22:53;;;;;;;10.43;7.53;;;;;;;13.43;100.00;98111.78;5055438;28;20267;-62
2021/10/02 07:25:22;;;;;;;8.20;6.77;;;;;;;13.54;100.00;98114.41;5054603;28;20624;-61
2021/10/02 07:27:49;;;;;;;8.70;7.27;;;;;;;13.60;100.00;98120.09;5055618;28;20247;-62
2021/10/02 07:30:16;;;;;;;9.93;7.03;;;;;;;13.66;100.00;98124.03;5056224;28;20215;-62
2021/10/02 07:32:43;;;;;;;7.87;6.17;;;;;;;13.66;100.00;98124.91;5049290;28;20218;-62
2021/10/02 07:35:12;;;;;;;10.20;6.73;;;;;;;13.71;100.00;98121.84;5056446;28;20230;-62
2021/10/02 07:37:39;;;;;;;7.60;6.80;;;;;;;13.68;100.00;98117.63;5056251;28;20218;-62
2021/10/02 07:40:10;;;;;;;9.27;7.27;;;;;;;13.63;100.00;98119.00;5056070;28;20567;-62
2021/10/02 07:42:38;;;;;;;8.30;7.20;;;;;;;13.53;100.00;98113.59;5048215;28;20584;-62
2021/10/02 07:45:07;;;;;;;9.07;7.57;;;;;;;13.46;100.00;98106.25;5056188;28;20212;-62
2021/10/02 07:47:39;;;;;;;10.37;6.77;;;;;;;13.46;100.00;98106.25;5056096;28;20241;-62
2021/10/02 07:50:09;;;;;;;11.20;7.73;;;;;;;13.63;100.00;98108.38;5056181;28;20219;-62
2021/10/02 07:52:36;;;;;;;9.10;7.03;;;;;;;13.79;100.00;98098.16;5055816;28;20238;-62
2021/10/02 07:55:04;;;;;;;8.87;7.17;;;;;;;13.94;100.00;98102.22;5055897;28;20227;-62
2021/10/02 07:57:32;;;;;;;8.17;7.13;;;;;;;14.07;100.00;98102.88;5055923;28;20586;-62
2021/10/02 07:59:59;;;;;;;8.23;6.90;;;;;;;14.19;100.00;98096.56;5055455;28;20231;-62
2021/10/02 08:02:26;;;;;;;9.67;7.63;;;;;;;14.31;100.00;98095.53;5055841;28;20218;-62
2021/10/02 08:04:52;;;;;;;9.60;6.77;;;;;;;14.42;100.00;98095.47;5055760;28;20219;-63
2021/10/02 08:07:20;;;;;;;7.50;6.70;;;;;;;14.54;100.00;98099.75;5054702;28;20242;-62
2021/10/02 08:09:47;;;;;;;8.57;6.63;;;;;;;14.66;100.00;98106.69;5053750;28;20251;-62
2021/10/02 08:12:15;;;;;;;7.63;6.80;;;;;;;14.80;100.00;98099.16;5055548;28;20229;-63
2021/10/02 08:14:43;;;;;;;8.23;6.43;;;;;;;14.90;100.00;98100.06;5055505;28;20211;-63
2021/10/02 08:17:11;;;;;;;8.03;6.60;;;;;;;15.02;100.00;98099.00;5055481;28;20219;-63
2021/10/02 08:19:40;;;;;;;7.47;6.20;;;;;;;15.11;100.00;98097.34;5054213;28;20223;-63
2021/10/02 08:22:08;;;;;;;9.07;6.60;;;;;;;15.19;100.00;98094.84;5053750;28;20223;-63
2021/10/02 08:24:36;;;;;;;10.00;6.43;;;;;;;15.31;100.00;98094.63;5055268;28;20247;-63
2021/10/02 08:27:04;;;;;;;7.03;5.83;;;;;;;15.45;100.00;98101.41;5055077;28;20247;-63
2021/10/02 08:29:31;;;;;;;7.43;5.57;;;;;;;15.56;99.83;98101.28;5055157;28;20208;-62
2021/10/02 08:31:59;;;;;;;6.57;5.67;;;;;;;15.67;98.06;98107.34;5055188;28;20238;-63
2021/10/02 08:34:26;;;;;;;6.43;5.57;;;;;;;15.75;98.15;98111.97;5051020;28;20224;-63
2021/10/02 08:36:53;;;;;;;7.60;5.67;;;;;;;15.87;95.03;98102.84;5054918;28;20215;-63
2021/10/02 08:39:19;;;;;;;6.53;5.13;;;;;;;15.97;93.27;98098.38;5055060;28;20231;-63
2021/10/02 08:41:49;;;;;;;5.90;5.10;;;;;;;16.13;91.04;98099.50;5055127;28;20238;-63
2021/10/02 08:44:17;;;;;;;6.03;4.80;;;;;;;16.26;89.76;98100.91;5054590;28;20225;-63
2021/10/02 08:46:45;;;;;;;5.20;4.60;;;;;;;16.41;88.95;98091.50;5054544;28;20769;-63
2021/10/02 08:49:32;;;;;;;5.13;4.20;;;;;;;16.56;86.92;98090.09;5054704;28;20212;-63
2021/10/02 08:52:00;;;;;;;5.00;4.20;;;;;;;16.71;85.99;98090.47;5054724;28;20240;-63
2021/10/02 08:54:28;;;;;;;7.30;4.80;;;;;;;16.83;85.23;98090.13;5054776;28;20223;-63
2021/10/02 08:56:55;;;;;;;5.13;4.60;;;;;;;16.92;86.24;98088.41;5054644;28;20220;-63
2021/10/02 08:59:22;;;;;;;5.10;4.60;;;;;;;17.05;85.60;98081.75;5054315;28;20286;-63
2021/10/02 09:01:49;;;;;;;4.60;4.00;;;;;;;17.14;82.64;98083.53;5052660;28;20669;-63
2021/10/02 09:04:17;;;;;;;6.27;4.30;;;;;;;17.23;82.81;98080.00;5054602;28;20219;-63
2021/10/02 09:06:45;;;;;;;5.23;4.37;;;;;;;17.33;81.87;98072.78;5054427;28;20319;-63
2021/10/02 09:09:12;;;;;;;5.23;4.00;;;;;;;17.45;81.59;98070.75;5054312;28;20223;-63
2021/10/02 09:11:38;;;;;;;6.00;4.30;;;;;;;17.60;79.00;98058.56;5053487;28;20211;-63
2021/10/02 09:14:05;;;;;;;5.13;3.73;;;;;;;17.62;78.40;98060.09;5054362;28;20224;-63
2021/10/02 09:16:32;;;;;;;4.57;3.60;;;;;;;17.72;76.57;98057.34;5054296;28;20299;-63
2021/10/02 09:18:59;;;;;;;5.43;3.70;;;;;;;17.83;74.10;98051.78;5054395;28;20587;-63
2021/10/02 09:21:26;;;;;;;5.70;3.80;;;;;;;17.87;71.89;98040.63;5054267;28;20212;-63
2021/10/02 09:23:53;;;;;;;3.90;3.37;;;;;;;17.89;71.88;98043.16;5054058;28;20219;-63
2021/10/02 09:26:44;;;;;;;3.67;3.20;;;;;;;17.96;72.59;98037.03;5052423;28;20219;-63
2021/10/02 09:29:11;;;;;;;3.40;3.10;;;;;;;17.98;73.08;98032.38;5054101;28;20220;-63
2021/10/02 09:31:37;;;;;;;5.40;3.03;;;;;;;18.04;71.17;98030.94;5053981;28;20218;-63
2021/10/02 09:34:04;;;;;;;3.30;2.90;;;;;;;18.10;70.24;98031.13;5054089;28;20234;-63
2021/10/02 09:36:30;;;;;;;3.27;2.60;;;;;;;18.16;69.24;98027.00;5053922;28;20220;-63
2021/10/02 09:38:58;;;;;;;3.17;2.87;;;;;;;18.33;68.28;98027.00;5053803;28;20212;-63
2021/10/02 09:41:25;;;;;;;3.50;2.87;;;;;;;18.42;66.63;98030.56;5053764;28;20220;-63
2021/10/02 09:43:54;;;;;;;3.23;2.50;;;;;;;18.53;64.84;98024.97;5053959;28;20220;-63
2021/10/02 09:46:33;;;;;;;3.23;2.40;;;;;;;18.71;63.56;98023.88;5053690;28;20222;-63
2021/10/02 09:49:00;;;;;;;3.33;2.30;;;;;;;18.82;62.83;98022.75;5052701;28;20216;-63
2021/10/02 09:51:39;;;;;;;3.40;2.33;;;;;;;18.80;61.25;98012.25;5053368;28;20217;-63
2021/10/02 09:54:07;;;;;;;4.20;2.63;;;;;;;18.82;61.63;98010.22;5052923;28;20263;-63
2021/10/02 09:56:33;;;;;;;4.17;2.50;;;;;;;18.96;62.42;98003.44;5053587;28;20212;-63
2021/10/02 09:59:00;;;;;;;2.23;2.03;;;;;;;18.99;63.32;98000.41;5053254;28;20227;-62
2021/10/02 10:01:31;;;;;;;2.80;2.47;;;;;;;19.00;61.73;98005.63;5053445;28;20310;-62
2021/10/02 10:03:57;;;;;;;2.60;2.10;;;;;;;19.09;61.49;97991.25;5053432;28;20314;-62
2021/10/02 10:06:26;;;;;;;3.27;2.40;;;;;;;19.18;61.49;97976.88;5053345;28;20223;-63
2021/10/02 10:09:07;;;;;;;2.70;2.00;;;;;;;19.22;60.24;97980.13;5053345;28;20245;-63
2021/10/02 10:11:42;;;;;;;2.77;2.47;;;;;;;19.32;59.72;97973.59;5052958;28;20215;-63
2021/10/02 10:14:09;;;;;;;2.97;2.47;;;;;;;19.39;58.89;97963.91;5053275;28;20215;-62
2021/10/02 10:16:37;;;;;;;3.73;2.20;;;;;;;19.48;58.73;97967.44;5053202;28;20208;-62
2021/10/02 10:19:16;;;;;;;3.60;2.60;;;;;;;19.57;58.96;97961.09;5051397;28;20212;-62
2021/10/02 10:21:43;;;;;;;2.87;2.57;;;;;;;19.57;57.83;97964.59;5053087;28;20222;-62
2021/10/02 10:24:19;;;;;;;2.70;2.50;;;;;;;19.66;58.07;97955.56;5052946;28;20215;-62
2021/10/02 10:26:45;;;;;;;2.60;2.40;;;;;;;19.78;59.11;97951.56;5045141;28;20581;-63
2021/10/02 10:29:12;;;;;;;2.67;2.47;;;;;;;19.86;59.14;97956.91;5052770;28;20223;-63
2021/10/02 10:31:39;;;;;;;2.83;2.53;;;;;;;19.95;58.33;97953.25;5052957;28;20218;-62
2021/10/02 10:34:06;;;;;;;3.80;2.70;;;;;;;19.96;56.90;97951.38;5052601;28;20219;-63
2021/10/02 10:36:33;;;;;;;2.73;2.40;;;;;;;20.05;57.62;97948.50;5052802;28;20208;-62
2021/10/02 10:38:59;;;;;;;3.37;2.50;;;;;;;20.09;57.84;97936.47;5052893;28;20580;-63
2021/10/02 10:41:28;;;;;;;3.53;2.80;;;;;;;20.11;57.19;97945.19;5052846;28;20219;-62
2021/10/02 10:43:54;;;;;;;2.83;2.60;;;;;;;20.26;57.43;97946.19;5051108;28;20302;-63
2021/10/02 10:46:23;;;;;;;3.30;2.87;;;;;;;20.31;56.86;97940.31;5053268;28;20216;-62
2021/10/02 10:48:50;;;;;;;3.50;2.60;;;;;;;20.37;56.37;97940.44;5052667;28;20582;-63
2021/10/02 10:51:19;;;;;;;3.93;2.63;;;;;;;20.39;55.42;97941.13;5052723;28;20637;-63
2021/10/02 10:53:47;;;;;;;3.07;2.77;;;;;;;20.41;54.92;97931.03;5052731;28;20308;-62
2021/10/02 10:56:16;;;;;;;3.37;2.30;;;;;;;20.46;55.88;97934.06;5052443;28;20208;-63
2021/10/02 10:58:44;;;;;;;4.97;2.97;;;;;;;20.55;56.09;97927.63;5052876;28;20230;-63
2021/10/02 11:01:12;;;;;;;4.13;3.00;;;;;;;20.51;55.12;97926.31;5046152;28;20219;-63
2021/10/02 11:03:41;;;;;;;4.63;3.07;;;;;;;20.57;55.12;97925.63;5052819;28;20216;-62
2021/10/02 11:06:09;;;;;;;3.83;3.10;;;;;;;20.63;55.40;97930.31;5045201;28;20212;-63
2021/10/02 11:08:59;;;;;;;4.73;2.80;;;;;;;20.61;55.36;97921.56;5052576;28;20249;-62
2021/10/02 11:11:54;;;;;;;3.00;2.50;;;;;;;20.67;54.81;97918.19;5050717;28;20765;-63
2021/10/02 11:14:24;;;;;;;3.40;3.10;;;;;;;20.69;55.77;97915.34;5045425;28;20613;-63
2021/10/02 11:17:01;;;;;;;3.30;3.00;;;;;;;20.72;54.85;97904.25;5052825;28;20223;-63
2021/10/02 11:19:38;;;;;;;3.27;2.63;;;;;;;20.76;54.12;97909.09;5052600;28;20219;-62
2021/10/02 11:22:30;;;;;;;3.20;2.90;;;;;;;20.78;54.30;97901.69;5052432;28;20222;-63
2021/10/02 11:24:58;;;;;;;2.73;2.50;;;;;;;20.92;55.44;97892.09;5046354;28;20597;-63
2021/10/02 11:27:27;;;;;;;3.40;2.80;;;;;;;20.95;55.22;97892.59;5052027;28;20240;-63
2021/10/02 11:30:11;;;;;;;3.30;3.00;;;;;;;21.12;54.88;97894.19;5052479;28;20239;-62
2021/10/02 11:32:38;;;;;;;2.80;2.50;;;;;;;21.16;53.73;97884.72;5045426;28;20211;-63
2021/10/02 11:35:20;;;;;;;3.57;2.37;;;;;;;21.08;53.97;97874.03;5055207;28;20281;-63
2021/10/02 11:37:53;;;;;;;3.13;2.67;;;;;;;21.10;54.00;97877.38;5054297;28;20739;-63
2021/10/02 11:40:46;;;;;;;4.13;2.53;;;;;;;21.13;52.59;97862.75;5055816;28;20243;-63
2021/10/02 11:43:27;;;;;;;3.63;3.03;;;;;;;21.21;52.45;97860.84;5056132;28;20270;-62
2021/10/02 11:46:01;;;;;;;3.13;2.70;;;;;;;21.31;51.92;97861.44;5055677;28;20718;-62
2021/10/02 11:48:37;;;;;;;3.07;2.87;;;;;;;21.49;52.84;97848.53;5049858;28;20235;-63
2021/10/02 11:51:16;;;;;;;3.07;2.80;;;;;;;21.70;52.13;97848.72;5055842;28;20220;-62
2021/10/02 11:53:46;;;;;;;3.17;2.80;;;;;;;21.84;51.65;97842.53;5055578;28;20342;-62
2021/10/02 11:56:14;;;;;;;3.27;2.97;;;;;;;21.99;51.37;97832.63;5055771;28;20204;-63
2021/10/02 11:58:42;;;;;;;2.73;2.30;;;;;;;22.10;50.72;97837.56;5055448;28;20220;-62
2021/10/02 12:01:16;;;;;;;3.53;2.87;;;;;;;22.12;50.02;97830.13;5055410;28;20216;-62
2021/10/02 12:03:43;;;;;;;2.73;2.53;;;;;;;22.19;51.03;97825.66;5050756;28;20226;-62
2021/10/02 12:06:09;;;;;;;8.57;2.70;;;;;;;22.29;49.89;97820.84;5054214;28;20224;-61
2021/10/02 12:08:39;;;;;;;2.50;2.30;;;;;;;22.23;48.43;97812.66;5054535;28;20250;-62
2021/10/02 12:11:08;;;;;;;2.50;2.30;;;;;;;22.25;49.25;97819.53;5053986;28;20215;-62
2021/10/02 12:13:36;;;;;;;2.57;2.33;;;;;;;22.19;48.30;97806.81;5046485;28;20620;-61
2021/10/02 12:16:05;;;;;;;2.63;2.43;;;;;;;22.24;49.26;97793.63;5056717;28;20215;-62
2021/10/02 12:18:55;;;;;;;2.80;2.50;;;;;;;22.17;49.11;97795.41;5060251;28;20624;-62
2021/10/02 12:21:29;;;;;;;3.77;2.70;;;;;;;22.21;49.95;97779.72;5059133;28;20776;-62
2021/10/02 12:23:58;;;;;;;3.97;2.30;;;;;;;22.18;49.42;97788.19;5059223;28;20217;-62